createdAt,value
2023-04-30T00:00:18.017Z,43.45
2023-04-30T00:02:45.126Z,43.58
2023-04-30T00:05:12.231Z,43.32
2023-04-30T00:07:39.248Z,43.27
2023-04-30T00:10:06.263Z,43.16
2023-04-30T00:12:33.306Z,43.10
2023-04-30T00:15:00.324Z,43.42
2023-04-30T00:17:27.344Z,43.51
2023-04-30T00:19:54.609Z,43.18
2023-04-30T00:22:21.912Z,43.48
2023-04-30T00:24:48.904Z,43.31
2023-04-30T00:27:15.922Z,43.31
2023-04-30T00:29:42.934Z,43.34
2023-04-30T00:32:09.987Z,43.56
2023-04-30T00:34:37.003Z,43.64
2023-04-30T00:37:04.207Z,43.30
2023-04-30T00:39:31.195Z,43.66
2023-04-30T00:41:58.196Z,43.39
2023-04-30T00:44:25.232Z,43.63
2023-04-30T00:46:52.280Z,43.17
2023-04-30T00:49:19.314Z,43.38
2023-04-30T00:51:46.341Z,43.51
2023-04-30T00:54:13.397Z,43.45
2023-04-30T00:56:40.428Z,43.58
2023-04-30T00:59:07.436Z,43.77
2023-04-30T01:01:34.528Z,43.47
2023-04-30T01:04:01.577Z,43.57
2023-04-30T01:06:28.746Z,43.59
2023-04-30T01:08:55.844Z,43.84
2023-04-30T01:11:22.881Z,43.70
2023-04-30T01:13:49.893Z,43.70
2023-04-30T01:16:16.972Z,43.52
2023-04-30T01:18:44.289Z,43.64
2023-04-30T01:21:11.764Z,43.92
2023-04-30T01:23:38.844Z,44.03
2023-04-30T01:26:05.859Z,44.01
2023-04-30T01:28:32.886Z,43.96
2023-04-30T01:30:59.979Z,43.65
2023-04-30T01:33:27.030Z,44.05
2023-04-30T01:35:54.152Z,44.01
2023-04-30T01:38:21.260Z,44.10
2023-04-30T01:40:49.201Z,43.84
2023-04-30T01:43:16.320Z,43.90
2023-04-30T01:45:43.429Z,43.92
2023-04-30T01:48:10.502Z,44.11
2023-04-30T01:50:37.654Z,44.10
2023-04-30T01:53:04.967Z,44.14
2023-04-30T01:55:32.016Z,44.26
2023-04-30T01:57:59.083Z,44.32
2023-04-30T02:00:26.151Z,44.38
2023-04-30T02:02:53.283Z,44.55
2023-04-30T02:05:20.371Z,44.41
2023-04-30T02:07:47.408Z,44.48
2023-04-30T02:10:14.453Z,44.55
2023-04-30T02:12:41.465Z,44.52
2023-04-30T02:15:08.484Z,44.60
2023-04-30T02:17:35.523Z,44.37
2023-04-30T02:20:02.547Z,44.49
2023-04-30T02:22:29.615Z,44.26
2023-04-30T02:24:56.648Z,44.45
2023-04-30T02:27:23.676Z,44.30
2023-04-30T02:29:50.658Z,44.41
2023-04-30T02:32:17.705Z,44.09
2023-04-30T02:34:44.757Z,44.45
2023-04-30T02:37:11.808Z,44.24
2023-04-30T02:39:38.851Z,44.38
2023-04-30T02:42:05.850Z,44.47
2023-04-30T02:44:32.883Z,44.54
2023-04-30T02:46:59.888Z,44.35
2023-04-30T02:49:26.934Z,44.50
2023-04-30T02:51:53.972Z,44.44
2023-04-30T02:54:20.980Z,44.11
2023-04-30T02:56:48.010Z,44.23
2023-04-30T02:59:15.053Z,44.56
2023-04-30T03:01:42.279Z,44.54
2023-04-30T03:04:09.352Z,44.40
2023-04-30T03:06:36.789Z,44.53
2023-04-30T03:09:03.842Z,44.39
2023-04-30T03:11:31.120Z,44.57
2023-04-30T03:13:58.179Z,44.57
2023-04-30T03:16:25.223Z,44.86
2023-04-30T03:18:52.275Z,44.84
2023-04-30T03:21:19.349Z,44.56
2023-04-30T03:23:46.393Z,44.64
2023-04-30T03:26:13.413Z,44.62
2023-04-30T03:28:40.439Z,44.61
2023-04-30T03:31:07.477Z,44.71
2023-04-30T03:33:34.531Z,44.41
2023-04-30T03:36:01.552Z,44.71
2023-04-30T03:38:28.578Z,44.78
2023-04-30T03:40:55.561Z,44.58
2023-04-30T03:43:22.600Z,44.57
2023-04-30T03:45:49.692Z,44.88
2023-04-30T03:48:16.756Z,44.71
2023-04-30T03:50:44.304Z,44.87
2023-04-30T03:53:11.275Z,44.96
2023-04-30T03:55:38.289Z,44.87
2023-04-30T03:58:05.284Z,45.10
2023-04-30T04:00:32.269Z,45.12
2023-04-30T04:02:59.332Z,44.93
2023-04-30T04:05:26.395Z,45.02
2023-04-30T04:07:53.440Z,44.96
2023-04-30T04:10:20.693Z,44.91
2023-04-30T04:12:47.727Z,45.08
2023-04-30T04:15:14.775Z,45.11
2023-04-30T04:17:41.859Z,45.24
2023-04-30T04:20:08.922Z,45.07
2023-04-30T04:22:35.946Z,45.16
2023-04-30T04:25:02.956Z,45.28
2023-04-30T04:27:29.963Z,45.35
2023-04-30T04:29:57.052Z,45.38
2023-04-30T04:32:24.162Z,45.14
2023-04-30T04:34:51.236Z,45.46
2023-04-30T04:37:18.279Z,45.22
2023-04-30T04:39:45.312Z,45.46
2023-04-30T04:42:12.334Z,45.37
2023-04-30T04:44:39.381Z,45.31
2023-04-30T04:47:06.386Z,45.25
2023-04-30T04:49:33.378Z,45.59
2023-04-30T04:52:00.411Z,45.24
2023-04-30T04:54:27.431Z,45.55
2023-04-30T04:56:54.462Z,45.40
2023-04-30T04:59:21.492Z,45.42
2023-04-30T05:01:48.574Z,45.66
2023-04-30T05:04:15.668Z,45.83
2023-04-30T05:06:42.877Z,45.61
2023-04-30T05:09:10.088Z,45.63
2023-04-30T05:11:37.081Z,45.69
2023-04-30T05:14:04.090Z,45.82
2023-04-30T05:16:31.185Z,45.85
2023-04-30T05:18:58.239Z,45.82
2023-04-30T05:21:25.274Z,45.83
2023-04-30T05:23:52.258Z,45.92
2023-04-30T05:26:19.291Z,45.96
2023-04-30T05:28:46.317Z,46.01
2023-04-30T05:31:13.353Z,46.07
2023-04-30T05:33:40.404Z,46.12
2023-04-30T05:36:07.394Z,46.24
2023-04-30T05:38:34.404Z,46.33
2023-04-30T05:41:01.395Z,46.34
2023-04-30T05:43:28.402Z,46.46
2023-04-30T05:45:55.531Z,46.29
2023-04-30T05:48:22.587Z,46.18
2023-04-30T05:50:49.625Z,46.24
2023-04-30T05:53:16.667Z,45.93
2023-04-30T05:55:43.696Z,46.20
2023-04-30T05:58:10.709Z,46.06
2023-04-30T06:00:37.773Z,46.17
2023-04-30T06:03:04.795Z,46.08
2023-04-30T06:05:31.842Z,46.02
2023-04-30T06:07:58.900Z,45.93
2023-04-30T06:10:25.924Z,46.28
2023-04-30T06:12:52.922Z,46.13
2023-04-30T06:15:20.244Z,46.34
2023-04-30T06:17:47.298Z,46.38
2023-04-30T06:20:14.340Z,46.00
2023-04-30T06:22:41.401Z,45.84
2023-04-30T06:25:08.432Z,46.26
2023-04-30T06:27:35.452Z,46.12
2023-04-30T06:30:02.542Z,46.13
2023-04-30T06:32:29.606Z,46.23
2023-04-30T06:34:56.688Z,46.29
2023-04-30T06:37:23.695Z,46.28
2023-04-30T06:39:50.816Z,46.28
2023-04-30T06:42:17.893Z,46.27
2023-04-30T06:44:44.933Z,46.20
2023-04-30T06:47:11.975Z,46.19
2023-04-30T06:49:38.992Z,46.06
2023-04-30T06:52:06.006Z,45.71
2023-04-30T06:54:33.026Z,46.13
2023-04-30T06:57:00.058Z,45.62
2023-04-30T06:59:27.079Z,45.12
2023-04-30T07:01:54.221Z,44.45
2023-04-30T07:04:21.303Z,43.03
2023-04-30T07:06:48.362Z,42.12
2023-04-30T07:09:15.356Z,42.27
2023-04-30T07:11:42.374Z,42.09
2023-04-30T07:14:09.411Z,41.57
2023-04-30T07:16:36.480Z,41.55
2023-04-30T07:19:03.536Z,40.57
2023-04-30T07:21:30.579Z,40.91
2023-04-30T07:23:57.643Z,39.98
2023-04-30T07:26:24.681Z,39.23
2023-04-30T07:28:51.683Z,38.28
2023-04-30T07:31:18.760Z,38.15
2023-04-30T07:33:45.825Z,38.47
2023-04-30T07:36:12.861Z,38.58
2023-04-30T07:38:39.892Z,38.42
2023-04-30T07:41:06.905Z,38.35
2023-04-30T07:43:33.901Z,38.08
2023-04-30T07:46:00.999Z,37.32
2023-04-30T07:48:28.041Z,37.51
2023-04-30T07:50:55.077Z,38.08
2023-04-30T07:53:22.110Z,38.36
2023-04-30T07:55:49.100Z,38.53
2023-04-30T07:58:16.131Z,38.22
2023-04-30T08:00:43.229Z,38.25
2023-04-30T08:03:10.312Z,38.05
2023-04-30T08:05:37.437Z,38.74
2023-04-30T08:08:04.488Z,38.15
2023-04-30T08:10:31.495Z,36.72
2023-04-30T08:12:58.514Z,35.56
2023-04-30T08:15:25.605Z,35.43
2023-04-30T08:17:52.776Z,33.95
2023-04-30T08:20:19.943Z,34.27
2023-04-30T08:22:47.025Z,34.21
2023-04-30T08:25:14.051Z,33.92
2023-04-30T08:27:41.046Z,34.46
2023-04-30T08:30:08.069Z,33.78
2023-04-30T08:32:35.146Z,33.85
2023-04-30T08:35:02.263Z,33.24
2023-04-30T08:37:29.306Z,32.56
2023-04-30T08:39:56.645Z,33.86
2023-04-30T08:42:24.177Z,32.29
2023-04-30T08:44:51.196Z,32.34
2023-04-30T08:47:18.292Z,32.56
2023-04-30T08:49:45.312Z,32.18
2023-04-30T08:52:12.396Z,32.22
2023-04-30T08:54:39.440Z,32.03
2023-04-30T08:57:06.648Z,31.67
2023-04-30T08:59:33.657Z,31.14
2023-04-30T09:02:01.034Z,31.22
2023-04-30T09:04:30.935Z,31.61
2023-04-30T09:06:57.941Z,31.41
2023-04-30T09:09:24.980Z,31.33
2023-04-30T09:11:52.021Z,31.34
2023-04-30T09:14:19.027Z,31.24
2023-04-30T09:16:46.162Z,31.53
2023-04-30T09:19:13.209Z,30.97
2023-04-30T09:21:40.747Z,30.66
2023-04-30T09:24:07.823Z,30.61
2023-04-30T09:26:34.872Z,30.64
2023-04-30T09:29:01.906Z,30.33
2023-04-30T09:31:29.004Z,29.97
2023-04-30T09:33:56.061Z,29.37
2023-04-30T09:36:23.046Z,29.44
2023-04-30T09:38:50.100Z,29.02
2023-04-30T09:41:17.077Z,29.60
2023-04-30T09:43:44.100Z,29.41
2023-04-30T09:46:11.157Z,30.08
2023-04-30T09:48:38.224Z,29.67
2023-04-30T09:51:05.298Z,29.34
2023-04-30T09:53:32.363Z,29.38
2023-04-30T09:55:59.394Z,29.22
2023-04-30T09:58:26.417Z,28.54
2023-04-30T10:00:53.472Z,28.70
2023-04-30T10:03:20.560Z,28.98
2023-04-30T10:05:47.628Z,29.41
2023-04-30T10:08:14.663Z,29.16
2023-04-30T10:10:41.678Z,30.06
2023-04-30T10:13:08.696Z,29.49
2023-04-30T10:15:35.725Z,28.88
2023-04-30T10:18:02.823Z,28.41
2023-04-30T10:20:29.932Z,29.75
2023-04-30T10:22:57.022Z,29.70
2023-04-30T10:25:24.041Z,29.44
2023-04-30T10:27:51.058Z,29.96
2023-04-30T10:30:18.096Z,29.64
2023-04-30T10:32:45.117Z,29.64
2023-04-30T10:35:12.440Z,28.63
2023-04-30T10:37:39.457Z,28.59
2023-04-30T10:40:06.499Z,28.77
2023-04-30T10:42:33.565Z,28.41
2023-04-30T10:45:00.648Z,29.73
2023-04-30T10:47:27.713Z,29.46
2023-04-30T10:49:55.015Z,28.62
2023-04-30T10:52:22.196Z,28.67
2023-04-30T10:54:49.215Z,28.08
2023-04-30T10:57:16.213Z,28.57
2023-04-30T10:59:43.224Z,28.85
2023-04-30T11:02:10.251Z,27.94
2023-04-30T11:04:37.325Z,28.31
2023-04-30T11:07:04.353Z,27.36
2023-04-30T11:09:31.398Z,27.55
2023-04-30T11:11:58.413Z,26.19
2023-04-30T11:14:25.440Z,26.09
2023-04-30T11:16:52.484Z,26.52
2023-04-30T11:19:19.517Z,26.91
2023-04-30T11:21:46.554Z,27.63
2023-04-30T11:24:13.551Z,27.23
2023-04-30T11:26:40.654Z,28.16
2023-04-30T11:29:07.708Z,27.55
2023-04-30T11:31:34.842Z,28.33
2023-04-30T11:34:01.932Z,29.28
2023-04-30T11:36:28.999Z,29.22
2023-04-30T11:38:56.032Z,29.00
2023-04-30T11:41:23.051Z,29.00
2023-04-30T11:43:50.081Z,29.40
2023-04-30T11:46:17.146Z,28.64
2023-04-30T11:48:44.210Z,28.32
2023-04-30T11:51:11.218Z,28.40
2023-04-30T11:53:38.208Z,28.18
2023-04-30T11:56:05.230Z,29.40
2023-04-30T11:58:32.254Z,28.00
2023-04-30T12:00:59.252Z,28.02
2023-04-30T12:03:26.348Z,27.83
2023-04-30T12:05:53.405Z,27.67
2023-04-30T12:08:20.481Z,28.05
2023-04-30T12:10:47.565Z,28.47
2023-04-30T12:13:14.652Z,27.64
2023-04-30T12:15:41.671Z,26.98
2023-04-30T12:18:08.754Z,28.07
2023-04-30T12:20:35.905Z,27.37
2023-04-30T12:23:02.943Z,27.96
2023-04-30T12:25:29.936Z,28.61
2023-04-30T12:27:57.356Z,28.32
2023-04-30T12:30:24.504Z,28.63
2023-04-30T12:32:51.555Z,27.97
2023-04-30T12:35:18.626Z,28.02
2023-04-30T12:37:45.654Z,26.68
2023-04-30T12:40:12.677Z,27.07
2023-04-30T12:42:39.696Z,27.39
2023-04-30T12:45:06.768Z,27.96
2023-04-30T12:47:33.778Z,27.74
2023-04-30T12:50:00.824Z,27.77
2023-04-30T12:52:27.821Z,28.18
2023-04-30T12:54:54.828Z,27.99
2023-04-30T12:57:21.886Z,27.85
2023-04-30T12:59:48.922Z,27.80
2023-04-30T13:02:15.994Z,28.44
2023-04-30T13:04:43.034Z,28.39
2023-04-30T13:07:10.096Z,28.52
2023-04-30T13:09:37.102Z,28.92
2023-04-30T13:12:04.090Z,29.41
2023-04-30T13:14:31.268Z,29.22
2023-04-30T13:16:58.278Z,28.96
2023-04-30T13:19:25.304Z,28.75
2023-04-30T13:21:52.311Z,28.92
2023-04-30T13:24:19.348Z,29.10
2023-04-30T13:26:46.372Z,28.65
2023-04-30T13:29:13.361Z,28.89
2023-04-30T13:31:40.371Z,29.56
2023-04-30T13:34:07.728Z,29.32
2023-04-30T13:36:34.760Z,29.52
2023-04-30T13:39:01.775Z,29.89
2023-04-30T13:41:28.829Z,29.02
2023-04-30T13:43:55.877Z,28.51
2023-04-30T13:46:22.905Z,28.17
2023-04-30T13:48:49.955Z,28.61
2023-04-30T13:51:17.003Z,28.92
2023-04-30T13:53:44.034Z,28.99
2023-04-30T13:56:11.063Z,28.90
2023-04-30T13:58:38.074Z,29.02
2023-04-30T14:01:05.174Z,29.09
2023-04-30T14:03:32.383Z,29.04
2023-04-30T14:05:59.534Z,29.50
2023-04-30T14:08:26.617Z,29.47
2023-04-30T14:10:53.623Z,29.40
2023-04-30T14:13:20.626Z,29.98
2023-04-30T14:15:47.620Z,29.96
2023-04-30T14:18:14.700Z,29.73
2023-04-30T14:20:41.759Z,29.80
2023-04-30T14:23:08.801Z,30.00
2023-04-30T14:25:35.826Z,30.37
2023-04-30T14:28:02.878Z,30.66
2023-04-30T14:30:29.885Z,30.61
2023-04-30T14:32:56.967Z,30.45
2023-04-30T14:35:23.997Z,30.23
2023-04-30T14:37:50.992Z,30.41
2023-04-30T14:40:17.984Z,30.52
2023-04-30T14:42:45.037Z,30.59
2023-04-30T14:45:12.083Z,30.56
2023-04-30T14:47:39.140Z,29.44
2023-04-30T14:50:06.223Z,29.52
2023-04-30T14:52:33.273Z,29.95
2023-04-30T14:55:00.294Z,29.18
2023-04-30T14:57:27.329Z,28.97
2023-04-30T14:59:54.557Z,28.45
2023-04-30T15:02:21.880Z,29.26
2023-04-30T15:04:49.013Z,30.06
2023-04-30T15:07:16.280Z,30.05
2023-04-30T15:09:43.321Z,30.29
2023-04-30T15:12:10.313Z,30.66
2023-04-30T15:14:37.334Z,30.52
2023-04-30T15:17:04.329Z,30.81
2023-04-30T15:19:31.355Z,30.66
2023-04-30T15:21:58.464Z,30.04
2023-04-30T15:24:25.452Z,30.00
2023-04-30T15:26:52.471Z,29.35
2023-04-30T15:29:19.525Z,29.45
2023-04-30T15:31:46.576Z,29.44
2023-04-30T15:34:13.658Z,29.36
2023-04-30T15:36:40.719Z,29.04
2023-04-30T15:39:07.753Z,29.49
2023-04-30T15:41:34.777Z,29.16
2023-04-30T15:44:01.803Z,29.01
2023-04-30T15:46:28.877Z,28.93
2023-04-30T15:48:56.378Z,28.99
2023-04-30T15:51:23.398Z,28.65
2023-04-30T15:53:50.369Z,28.59
2023-04-30T15:56:17.390Z,28.63
2023-04-30T15:58:44.388Z,28.29
2023-04-30T16:01:11.621Z,28.56
2023-04-30T16:03:38.744Z,28.91
2023-04-30T16:06:05.899Z,28.00
2023-04-30T16:08:32.983Z,28.15
2023-04-30T16:10:59.991Z,28.41
2023-04-30T16:13:27.015Z,28.08
2023-04-30T16:15:54.031Z,28.31
2023-04-30T16:18:21.066Z,27.57
2023-04-30T16:20:48.077Z,27.13
2023-04-30T16:23:15.122Z,27.85
2023-04-30T16:25:42.366Z,28.18
2023-04-30T16:28:09.383Z,28.47
2023-04-30T16:30:36.425Z,28.29
2023-04-30T16:33:03.482Z,28.96
2023-04-30T16:35:30.528Z,28.72
2023-04-30T16:37:57.551Z,28.79
2023-04-30T16:40:24.582Z,28.76
2023-04-30T16:42:51.568Z,28.52
2023-04-30T16:45:18.577Z,29.09
2023-04-30T16:47:45.587Z,28.97
2023-04-30T16:50:12.679Z,28.12
2023-04-30T16:52:39.677Z,28.48
2023-04-30T16:55:06.704Z,28.41
2023-04-30T16:57:33.710Z,28.03
2023-04-30T17:00:00.722Z,28.49
2023-04-30T17:02:27.889Z,29.05
2023-04-30T17:04:54.977Z,28.39
2023-04-30T17:07:22.020Z,28.78
2023-04-30T17:09:49.034Z,28.28
2023-04-30T17:12:16.052Z,27.73
2023-04-30T17:14:43.188Z,28.04
2023-04-30T17:17:10.192Z,28.83
2023-04-30T17:19:37.208Z,29.18
2023-04-30T17:22:04.240Z,29.33
2023-04-30T17:24:31.385Z,29.03
2023-04-30T17:26:58.428Z,28.79
2023-04-30T17:29:25.434Z,29.04
2023-04-30T17:31:52.623Z,29.01
2023-04-30T17:34:19.787Z,29.25
2023-04-30T17:36:46.837Z,29.76
2023-04-30T17:39:13.860Z,30.17
2023-04-30T17:41:40.873Z,29.42
2023-04-30T17:44:07.931Z,29.53
2023-04-30T17:46:35.041Z,29.58
2023-04-30T17:49:02.115Z,29.34
2023-04-30T17:51:29.140Z,29.40
2023-04-30T17:53:56.193Z,29.79
2023-04-30T17:56:23.242Z,29.56
2023-04-30T17:58:50.265Z,29.98
2023-04-30T18:01:17.274Z,29.92
2023-04-30T18:03:44.416Z,30.13
2023-04-30T18:06:11.542Z,29.72
2023-04-30T18:08:38.616Z,29.76
2023-04-30T18:11:05.677Z,30.08
2023-04-30T18:13:32.695Z,30.33
2023-04-30T18:15:59.744Z,30.05
2023-04-30T18:18:26.782Z,30.15
2023-04-30T18:20:53.798Z,30.13
2023-04-30T18:23:20.879Z,30.23
2023-04-30T18:25:47.886Z,30.21
2023-04-30T18:28:14.930Z,30.45
2023-04-30T18:30:41.969Z,30.62
2023-04-30T18:33:09.106Z,30.40
2023-04-30T18:35:36.163Z,30.02
2023-04-30T18:38:03.207Z,30.15
2023-04-30T18:40:30.219Z,30.29
2023-04-30T18:42:57.226Z,30.28
2023-04-30T18:45:24.361Z,30.62
2023-04-30T18:47:51.513Z,30.83
2023-04-30T18:50:18.550Z,30.44
2023-04-30T18:52:45.612Z,30.55
2023-04-30T18:55:12.714Z,30.90
2023-04-30T18:57:41.959Z,30.73
2023-04-30T19:00:09.448Z,30.93
2023-04-30T19:02:36.536Z,31.22
2023-04-30T19:05:03.693Z,30.95
2023-04-30T19:07:30.768Z,31.04
2023-04-30T19:09:58.012Z,30.85
2023-04-30T19:12:25.244Z,31.10
2023-04-30T19:14:52.272Z,31.06
2023-04-30T19:17:21.506Z,31.19
2023-04-30T19:19:48.925Z,31.51
2023-04-30T19:22:15.942Z,31.00
2023-04-30T19:24:43.400Z,31.60
2023-04-30T19:27:10.537Z,31.50
2023-04-30T19:29:37.530Z,31.48
2023-04-30T19:32:04.692Z,31.63
2023-04-30T19:34:31.834Z,31.74
2023-04-30T19:36:58.844Z,31.78
2023-04-30T19:39:25.885Z,31.94
2023-04-30T19:41:52.917Z,31.83
2023-04-30T19:44:19.961Z,32.13
2023-04-30T19:46:47.161Z,32.50
2023-04-30T19:49:14.400Z,32.57
2023-04-30T19:51:41.473Z,32.67
2023-04-30T19:54:08.489Z,32.68
2023-04-30T19:56:35.552Z,32.54
2023-04-30T19:59:02.626Z,32.45
2023-04-30T20:01:29.767Z,32.42
2023-04-30T20:03:56.883Z,32.90
2023-04-30T20:06:23.999Z,32.73
2023-04-30T20:08:51.096Z,32.67
2023-04-30T20:11:18.090Z,33.26
2023-04-30T20:13:45.168Z,33.00
2023-04-30T20:16:12.208Z,33.43
2023-04-30T20:18:39.241Z,33.07
2023-04-30T20:21:06.275Z,33.34
2023-04-30T20:23:33.287Z,33.22
2023-04-30T20:26:00.329Z,33.14
2023-04-30T20:28:27.334Z,33.46
2023-04-30T20:30:54.356Z,33.35
2023-04-30T20:33:21.410Z,33.74
2023-04-30T20:35:48.479Z,33.96
2023-04-30T20:38:17.319Z,33.88
2023-04-30T20:40:46.025Z,33.93
2023-04-30T20:43:13.068Z,33.88
2023-04-30T20:45:40.095Z,34.06
2023-04-30T20:48:07.144Z,34.25
2023-04-30T20:50:34.220Z,34.41
2023-04-30T20:53:01.278Z,34.25
2023-04-30T20:55:28.298Z,34.23
2023-04-30T20:57:55.348Z,34.50
2023-04-30T21:00:22.399Z,34.32
2023-04-30T21:02:49.548Z,34.63
2023-04-30T21:05:17.043Z,34.82
2023-04-30T21:07:44.060Z,34.73
2023-04-30T21:10:11.046Z,34.72
2023-04-30T21:12:38.110Z,34.67
2023-04-30T21:15:05.170Z,34.46
2023-04-30T21:17:32.237Z,34.56
2023-04-30T21:19:59.292Z,34.89
2023-04-30T21:22:26.323Z,34.76
2023-04-30T21:24:53.323Z,35.22
2023-04-30T21:27:20.339Z,35.19
2023-04-30T21:29:47.383Z,34.93
2023-04-30T21:32:14.428Z,35.26
2023-04-30T21:34:41.495Z,34.98
2023-04-30T21:37:08.499Z,35.55
2023-04-30T21:39:35.536Z,35.27
2023-04-30T21:42:02.522Z,35.47
2023-04-30T21:44:29.556Z,35.49
2023-04-30T21:46:56.546Z,35.44
2023-04-30T21:49:23.731Z,35.66
2023-04-30T21:51:50.764Z,35.30
2023-04-30T21:54:17.778Z,35.71
2023-04-30T21:56:44.902Z,35.40
2023-04-30T21:59:11.884Z,35.65
2023-04-30T22:01:38.979Z,35.82
2023-04-30T22:04:06.014Z,36.08
2023-04-30T22:06:33.105Z,36.25
2023-04-30T22:09:00.181Z,36.14
2023-04-30T22:11:27.198Z,36.32
2023-04-30T22:13:54.219Z,36.16
2023-04-30T22:16:21.370Z,36.34
2023-04-30T22:18:48.498Z,36.15
2023-04-30T22:21:15.542Z,36.23
2023-04-30T22:23:42.603Z,36.39
2023-04-30T22:26:09.597Z,36.27
2023-04-30T22:28:36.661Z,36.39
2023-04-30T22:31:03.691Z,36.28
2023-04-30T22:33:30.721Z,36.62
2023-04-30T22:35:57.758Z,36.56
2023-04-30T22:38:24.824Z,36.76
2023-04-30T22:40:51.874Z,36.64
2023-04-30T22:43:18.931Z,36.76
2023-04-30T22:45:46.046Z,36.58
2023-04-30T22:48:13.154Z,36.82
2023-04-30T22:50:40.237Z,37.01
2023-04-30T22:53:07.258Z,36.79
2023-04-30T22:55:34.308Z,36.69
2023-04-30T22:58:01.310Z,37.19
2023-04-30T23:00:28.274Z,37.15
2023-04-30T23:02:55.643Z,37.14
2023-04-30T23:05:22.730Z,37.14
2023-04-30T23:07:49.716Z,37.20
2023-04-30T23:10:16.769Z,36.88
2023-04-30T23:12:43.791Z,37.34
2023-04-30T23:15:10.845Z,37.23
2023-04-30T23:17:37.877Z,37.27
2023-04-30T23:20:04.888Z,37.30
2023-04-30T23:22:31.911Z,37.32
2023-04-30T23:24:58.923Z,37.31
2023-04-30T23:27:25.910Z,37.47
2023-04-30T23:29:52.921Z,37.31
2023-04-30T23:32:20.074Z,37.66
2023-04-30T23:34:47.190Z,37.28
2023-04-30T23:37:14.219Z,37.14
2023-04-30T23:39:41.252Z,37.63
2023-04-30T23:42:08.305Z,37.50
2023-04-30T23:44:35.305Z,37.49
2023-04-30T23:47:02.325Z,37.50
2023-04-30T23:49:29.331Z,37.58
2023-04-30T23:51:56.391Z,37.43
2023-04-30T23:54:23.401Z,37.36
2023-04-30T23:56:50.446Z,37.44
2023-04-30T23:59:17.457Z,37.35
